Time;durP1;ratioP1;P1;durP2;ratioP2;P2;SDS_P1;SDS_P2;PMS_P1;PMS_P2;Temp;Humidity;BMP_temperature;BMP_pressure;BME280_temperature;BME280_humidity;BME280_pressure;Samples;Min_cycle;Max_cycle;Signal;HPM_P1;HPM_P2
2022/05/29 00:00:13;;;;;;;5.17;4.33;;;10.00;1.00;;;;;;5034987;28;20437;-74
2022/05/29 00:02:40;;;;;;;12.30;6.27;;;10.00;1.00;;;;;;5036294;28;20838;-75
2022/05/29 00:05:07;;;;;;;9.87;5.40;;;10.00;1.00;;;;;;5036258;28;20402;-74
2022/05/29 00:07:34;;;;;;;13.33;6.30;;;10.00;1.00;;;;;;5035128;28;20402;-70
2022/05/29 00:10:03;;;;;;;11.43;5.13;;;10.00;1.00;;;;;;5036144;28;20457;-70
2022/05/29 00:12:29;;;;;;;15.20;5.27;;;10.00;1.00;;;;;;5035925;28;20410;-71
2022/05/29 00:14:56;;;;;;;29.37;6.13;;;9.90;1.00;;;;;;5034848;28;20486;-70
2022/05/29 00:17:22;;;;;;;19.70;7.80;;;9.90;1.00;;;;;;5034827;28;20170;-71
2022/05/29 00:19:48;;;;;;;16.07;4.80;;;9.90;1.00;;;;;;5051059;28;20828;-70
2022/05/29 00:22:22;;;;;;;7.00;4.97;;;9.90;1.00;;;;;;5035895;28;20767;-74
2022/05/29 00:24:48;;;;;;;11.40;5.00;;;9.80;1.00;;;;;;5035675;28;20423;-71
2022/05/29 00:27:16;;;;;;;13.90;4.87;;;9.80;1.00;;;;;;5050221;28;20396;-74
2022/05/29 00:29:42;;;;;;;5.80;4.73;;;9.80;1.00;;;;;;5035819;28;20432;-74
2022/05/29 00:32:09;;;;;;;11.67;4.87;;;9.80;1.00;;;;;;5050066;28;21004;-75
2022/05/29 00:34:36;;;;;;;12.77;5.57;;;9.80;1.00;;;;;;5035739;28;20514;-74
2022/05/29 00:37:06;;;;;;;9.77;5.77;;;9.80;1.00;;;;;;5034355;28;20744;-74
2022/05/29 00:39:32;;;;;;;9.30;5.30;;;9.80;1.00;;;;;;5035670;28;20397;-70
2022/05/29 00:41:58;;;;;;;14.57;5.83;;;9.80;1.00;;;;;;5035748;28;20439;-70
2022/05/29 00:44:26;;;;;;;13.07;4.77;;;9.80;1.00;;;;;;5035707;28;20176;-75
2022/05/29 00:46:58;;;;;;;15.27;4.73;;;9.80;1.00;;;;;;5034639;28;20493;-74
2022/05/29 00:49:34;;;;;;;7.23;4.70;;;9.80;1.00;;;;;;5034465;28;20944;-70
2022/05/29 00:52:01;;;;;;;9.20;5.10;;;9.80;1.00;;;;;;5035271;28;20500;-70
2022/05/29 00:54:33;;;;;;;5.03;4.37;;;9.80;1.00;;;;;;5035049;28;20841;-70
2022/05/29 00:56:59;;;;;;;10.43;4.00;;;9.80;1.00;;;;;;5034386;28;20417;-71
2022/05/29 00:59:29;;;;;;;9.77;5.20;;;9.80;1.00;;;;;;5033809;28;20441;-70
2022/05/29 01:01:56;;;;;;;5.43;4.97;;;9.70;1.00;;;;;;5035288;28;20469;-74
2022/05/29 01:04:22;;;;;;;11.57;6.77;;;9.70;1.00;;;;;;5033262;28;20803;-70
2022/05/29 01:06:48;;;;;;;10.13;4.60;;;9.60;1.00;;;;;;5034150;28;20596;-75
2022/05/29 01:09:15;;;;;;;10.90;5.63;;;9.60;1.00;;;;;;5033552;28;20834;-74
2022/05/29 01:11:59;;;;;;;8.27;3.83;;;9.50;1.00;;;;;;5033454;28;20918;-70
2022/05/29 01:14:36;;;;;;;8.53;5.03;;;9.50;1.00;;;;;;5035047;28;20416;-70
2022/05/29 01:17:05;;;;;;;10.30;4.20;;;9.50;1.00;;;;;;5032871;28;20426;-70
2022/05/29 01:19:57;;;;;;;9.83;4.60;;;9.40;1.00;;;;;;5033993;28;20460;-70
2022/05/29 01:22:49;;;;;;;6.90;4.43;;;9.40;1.00;;;;;;5034916;28;20454;-74
2022/05/29 01:25:17;;;;;;;8.90;5.30;;;9.40;1.00;;;;;;5034444;28;20447;-73
2022/05/29 01:27:59;;;;;;;11.17;4.87;;;9.40;1.00;;;;;;5033658;28;20508;-74
2022/05/29 01:30:29;;;;;;;9.37;5.13;;;9.40;1.00;;;;;;5033254;28;20437;-74
2022/05/29 01:33:02;;;;;;;7.63;5.70;;;9.50;1.00;;;;;;5034617;28;20489;-70
2022/05/29 01:35:34;;;;;;;13.53;5.70;;;9.50;1.00;;;;;;5034582;28;20977;-72
2022/05/29 01:38:10;;;;;;;11.33;6.50;;;9.50;1.00;;;;;;5033540;28;20411;-70
2022/05/29 01:40:44;;;;;;;10.93;4.70;;;9.50;1.00;;;;;;5034638;28;20426;-70
2022/05/29 01:43:29;;;;;;;6.50;4.03;;;9.50;1.00;;;;;;5034471;28;20448;-74
2022/05/29 01:46:04;;;;;;;6.87;4.60;;;9.50;1.00;;;;;;5033935;28;20419;-74
2022/05/29 01:48:41;;;;;;;8.83;4.37;;;9.50;1.00;;;;;;5047767;28;20858;-74
2022/05/29 01:51:16;;;;;;;8.13;4.60;;;9.50;1.00;;;;;;5034191;28;20412;-70
2022/05/29 01:53:59;;;;;;;4.97;4.23;;;9.50;1.00;;;;;;5034248;28;20451;-69
2022/05/29 01:56:32;;;;;;;9.23;4.97;;;9.50;1.00;;;;;;5033965;28;20398;-71
2022/05/29 01:59:04;;;;;;;15.00;5.80;;;9.60;1.00;;;;;;5034133;28;20501;-70
2022/05/29 02:01:34;;;;;;;7.30;4.60;;;9.50;1.00;;;;;;5034103;28;20410;-71
2022/05/29 02:04:08;;;;;;;9.80;4.80;;;9.60;1.00;;;;;;5033066;28;20469;-70
2022/05/29 02:09:38;;;;;;;7.17;4.33;;;9.70;1.00;;;;;;5033808;28;20480;-71
2022/05/29 02:12:07;;;;;;;13.57;4.80;;;9.70;1.00;;;;;;5033826;28;20406;-74
2022/05/29 02:14:40;;;;;;;8.80;4.10;;;9.70;1.00;;;;;;5034022;28;20413;-75
2022/05/29 02:17:14;;;;;;;11.90;4.70;;;9.80;1.00;;;;;;5032920;28;20413;-70
2022/05/29 02:19:50;;;;;;;19.90;5.87;;;9.80;1.00;;;;;;5032634;28;20441;-71
2022/05/29 02:22:42;;;;;;;13.77;5.60;;;9.80;1.00;;;;;;5033538;28;20927;-74
2022/05/29 02:25:12;;;;;;;14.40;5.97;;;9.90;1.00;;;;;;5029912;28;20416;-70
2022/05/29 02:27:56;;;;;;;10.87;4.87;;;9.80;1.00;;;;;;5032674;28;20405;-74
2022/05/29 02:30:38;;;;;;;6.43;4.70;;;9.80;1.00;;;;;;5033742;28;20479;-71
2022/05/29 02:33:07;;;;;;;5.77;4.33;;;9.80;1.00;;;;;;5033680;28;20406;-74
2022/05/29 02:36:19;;;;;;;5.23;4.50;;;9.80;1.00;;;;;;5031649;28;20432;-74
2022/05/29 02:38:52;;;;;;;6.00;4.80;;;9.90;1.00;;;;;;5031952;28;20457;-70
2022/05/29 02:41:29;;;;;;;11.67;5.23;;;9.90;1.00;;;;;;5031753;28;20513;-74
2022/05/29 02:44:12;;;;;;;12.67;5.30;;;9.90;1.00;;;;;;5033380;28;20484;-71
2022/05/29 02:46:49;;;;;;;6.10;4.40;;;9.90;1.00;;;;;;5032631;28;20410;-74
2022/05/29 02:49:30;;;;;;;8.80;5.73;;;9.90;1.00;;;;;;5033471;28;21019;-70
2022/05/29 02:52:09;;;;;;;12.37;4.90;;;9.90;1.00;;;;;;5032310;28;20498;-74
2022/05/29 02:54:35;;;;;;;8.70;4.50;;;9.90;1.00;;;;;;5033481;28;20410;-70
2022/05/29 02:57:02;;;;;;;6.57;4.57;;;9.90;1.00;;;;;;5032478;28;20399;-74
2022/05/29 02:59:44;;;;;;;11.43;5.67;;;9.90;1.00;;;;;;5031862;28;20409;-70
2022/05/29 03:02:37;;;;;;;6.70;5.60;;;9.90;1.00;;;;;;5033188;28;20405;-72
2022/05/29 03:05:27;;;;;;;8.40;5.10;;;9.90;1.00;;;;;;5033239;28;20430;-74
2022/05/29 03:08:21;;;;;;;6.73;5.17;;;9.90;1.00;;;;;;5031299;28;20532;-72
2022/05/29 03:11:06;;;;;;;11.87;4.30;;;9.90;1.00;;;;;;5027614;28;20458;-70
2022/05/29 03:13:35;;;;;;;8.63;4.80;;;9.90;1.00;;;;;;5033192;28;20390;-71
2022/05/29 03:16:36;;;;;;;10.30;5.50;;;9.90;1.00;;;;;;5031465;28;20760;-73
2022/05/29 03:19:34;;;;;;;9.73;5.17;;;9.90;1.00;;;;;;5033160;28;20432;-75
2022/05/29 03:22:20;;;;;;;9.80;5.37;;;9.90;1.00;;;;;;5033070;28;20409;-71
2022/05/29 03:24:49;;;;;;;13.37;5.93;;;9.90;1.00;;;;;;5031482;28;20845;-70
2022/05/29 03:27:20;;;;;;;9.00;4.50;;;9.90;1.00;;;;;;5032219;28;20746;-71
2022/05/29 03:30:05;;;;;;;17.93;5.10;;;9.90;1.00;;;;;;5032858;28;20454;-70
2022/05/29 03:32:33;;;;;;;8.73;4.83;;;10.00;1.00;;;;;;5032914;28;20740;-75
2022/05/29 03:34:58;;;;;;;7.10;4.77;;;10.00;1.00;;;;;;5032576;28;20454;-70
2022/05/29 03:37:24;;;;;;;12.50;4.93;;;10.00;1.00;;;;;;5032169;28;20399;-71
2022/05/29 03:39:50;;;;;;;11.67;4.70;;;9.90;1.00;;;;;;5032150;28;20199;-71
2022/05/29 03:42:16;;;;;;;4.80;4.30;;;9.90;1.00;;;;;;5032916;28;20195;-74
2022/05/29 03:44:42;;;;;;;10.03;5.60;;;9.90;1.00;;;;;;5032903;28;20174;-74
2022/05/29 03:47:07;;;;;;;8.80;4.70;;;9.90;1.00;;;;;;5034075;28;20410;-70
2022/05/29 03:49:33;;;;;;;7.03;5.20;;;10.00;1.00;;;;;;5036615;28;20199;-71
2022/05/29 03:51:59;;;;;;;8.10;5.20;;;10.00;1.00;;;;;;5036215;28;20175;-75
2022/05/29 03:54:24;;;;;;;8.60;5.00;;;10.00;1.00;;;;;;5036516;28;20619;-74
2022/05/29 03:56:50;;;;;;;5.70;4.60;;;10.00;1.00;;;;;;5034336;28;20233;-71
2022/05/29 03:59:16;;;;;;;10.43;4.70;;;10.00;1.00;;;;;;5036402;28;20241;-75
2022/05/29 04:01:42;;;;;;;9.13;4.80;;;10.10;1.00;;;;;;5036435;28;20192;-75
2022/05/29 04:04:08;;;;;;;13.53;5.23;;;10.00;1.00;;;;;;5036421;28;20401;-69
2022/05/29 04:06:39;;;;;;;14.67;5.43;;;10.10;1.00;;;;;;5035308;28;20385;-71
2022/05/29 04:12:07;;;;;;;7.03;4.10;;;10.10;1.00;;;;;;5035687;28;20393;-74
2022/05/29 04:14:40;;;;;;;16.20;4.97;;;10.10;4.80;;;;;;5034289;28;20806;-73
2022/05/29 04:17:07;;;;;;;10.00;5.33;;;10.20;10.70;;;;;;5035187;28;20405;-74
2022/05/29 04:19:33;;;;;;;8.83;4.80;;;10.20;9.90;;;;;;5036066;28;20429;-74
2022/05/29 04:21:59;;;;;;;9.67;4.90;;;10.20;10.10;;;;;;5035259;28;20468;-75
2022/05/29 04:24:25;;;;;;;9.97;6.10;;;10.30;15.80;;;;;;5035847;28;20202;-72
2022/05/29 04:26:51;;;;;;;10.47;5.30;;;10.40;14.40;;;;;;5034914;28;20459;-75
2022/05/29 04:29:19;;;;;;;7.87;5.00;;;10.40;17.70;;;;;;5032910;28;20473;-71
2022/05/29 04:34:29;;;;;;;11.60;4.03;;;10.50;19.40;;;;;;5035733;28;20398;-74
2022/05/29 04:36:55;;;;;;;8.83;4.20;;;10.60;26.90;;;;;;5034642;28;20385;-71
2022/05/29 04:39:21;;;;;;;7.90;4.13;;;10.60;24.80;;;;;;5035597;28;20397;-71
2022/05/29 04:41:46;;;;;;;7.20;4.17;;;10.60;20.70;;;;;;5035700;28;20179;-70
2022/05/29 04:44:12;;;;;;;15.00;4.33;;;10.70;12.60;;;;;;5035840;28;20211;-74
2022/05/29 04:46:37;;;;;;;11.93;5.00;;;10.70;18.70;;;;;;5033398;28;20607;-75
2022/05/29 04:49:04;;;;;;;8.37;4.10;;;10.80;19.60;;;;;;5034777;28;20286;-70
2022/05/29 04:51:29;;;;;;;9.33;4.13;;;10.80;21.00;;;;;;5035540;28;20163;-71
2022/05/29 04:53:55;;;;;;;9.37;3.40;;;10.90;21.70;;;;;;5035444;28;20432;-70
2022/05/29 04:56:21;;;;;;;13.90;4.03;;;10.90;24.70;;;;;;5035121;28;20159;-75
2022/05/29 04:58:46;;;;;;;15.30;4.47;;;10.90;15.30;;;;;;5033727;28;20540;-75
2022/05/29 05:01:12;;;;;;;7.57;3.30;;;11.00;10.50;;;;;;5035258;28;20199;-70
2022/05/29 05:03:38;;;;;;;11.87;3.50;;;11.00;10.20;;;;;;5034110;28;20190;-70
2022/05/29 05:06:03;;;;;;;8.43;4.00;;;11.00;10.60;;;;;;5034743;28;20218;-70
2022/05/29 05:08:29;;;;;;;19.60;5.13;;;11.10;12.50;;;;;;5034084;28;20557;-75
2022/05/29 05:10:55;;;;;;;8.77;3.90;;;11.10;11.70;;;;;;5035115;28;20179;-74
2022/05/29 05:13:21;;;;;;;13.97;6.47;;;11.00;7.90;;;;;;5034986;28;20189;-70
2022/05/29 05:15:47;;;;;;;24.23;6.20;;;11.00;7.70;;;;;;5034975;28;20402;-74
2022/05/29 05:18:13;;;;;;;4.73;3.30;;;11.10;14.90;;;;;;5032826;28;20819;-71
2022/05/29 05:20:39;;;;;;;10.50;3.60;;;11.10;14.30;;;;;;5034738;28;20250;-70
2022/05/29 05:23:05;;;;;;;10.20;4.77;;;11.10;3.90;;;;;;5034409;28;20911;-74
2022/05/29 05:25:32;;;;;;;14.87;4.57;;;11.10;3.10;;;;;;5050256;28;20408;-70
2022/05/29 05:27:57;;;;;;;10.03;3.93;;;11.10;2.70;;;;;;5033706;28;20471;-70
2022/05/29 05:30:24;;;;;;;8.63;3.80;;;11.20;7.90;;;;;;5034669;28;20884;-74
2022/05/29 05:32:50;;;;;;;10.10;4.40;;;11.30;4.30;;;;;;5049955;28;20544;-70
2022/05/29 05:35:16;;;;;;;9.13;4.10;;;11.30;1.00;;;;;;5033350;28;20404;-74
2022/05/29 05:37:42;;;;;;;12.83;5.10;;;11.30;1.00;;;;;;5033511;28;20163;-72
2022/05/29 05:40:13;;;;;;;10.13;3.60;;;11.30;1.00;;;;;;5034083;28;20640;-73
2022/05/29 05:42:39;;;;;;;8.93;4.13;;;11.30;1.00;;;;;;5034157;28;20896;-74
2022/05/29 05:45:13;;;;;;;9.37;3.87;;;11.40;1.00;;;;;;5034092;28;20392;-71
2022/05/29 05:47:39;;;;;;;16.10;5.40;;;11.50;1.00;;;;;;5033321;28;20176;-73
2022/05/29 05:50:06;;;;;;;13.73;4.40;;;11.60;1.00;;;;;;5033338;28;20490;-72
2022/05/29 05:52:32;;;;;;;11.73;4.50;;;11.60;1.00;;;;;;5033196;28;20221;-74
2022/05/29 05:54:57;;;;;;;13.57;4.40;;;11.70;1.00;;;;;;5034373;28;20377;-75
2022/05/29 05:57:23;;;;;;;5.33;3.30;;;11.80;1.00;;;;;;5033277;28;20440;-75
2022/05/29 05:59:48;;;;;;;18.07;4.80;;;11.80;1.00;;;;;;5032538;28;20203;-75
2022/05/29 06:02:15;;;;;;;13.97;5.10;;;11.80;1.00;;;;;;5034394;28;20658;-70
2022/05/29 06:04:42;;;;;;;8.60;3.20;;;11.80;1.00;;;;;;5034042;28;20524;-74
2022/05/29 06:07:09;;;;;;;14.43;4.67;;;11.90;1.00;;;;;;5031899;28;20428;-69
2022/05/29 06:09:35;;;;;;;13.60;4.50;;;11.90;1.00;;;;;;5033668;28;20482;-69
2022/05/29 06:12:03;;;;;;;9.43;4.00;;;11.90;1.00;;;;;;5033966;28;20883;-74
2022/05/29 06:14:29;;;;;;;8.10;4.23;;;11.90;1.00;;;;;;5031827;28;20437;-69
2022/05/29 06:16:57;;;;;;;8.20;3.87;;;12.10;1.00;;;;;;5032802;28;20452;-74
2022/05/29 06:19:22;;;;;;;15.77;4.20;;;12.30;1.00;;;;;;5032273;28;20755;-74
2022/05/29 06:21:48;;;;;;;14.43;3.97;;;12.40;1.00;;;;;;5033694;28;20445;-70
2022/05/29 06:24:13;;;;;;;11.60;3.80;;;12.60;1.00;;;;;;5032705;28;20184;-74
2022/05/29 06:26:39;;;;;;;8.90;3.77;;;12.80;1.00;;;;;;5032762;28;20183;-74
2022/05/29 06:29:05;;;;;;;7.00;3.17;;;12.80;1.00;;;;;;5030378;28;20199;-70
2022/05/29 06:31:30;;;;;;;12.73;3.33;;;12.70;1.00;;;;;;5033405;28;20171;-74
2022/05/29 06:33:56;;;;;;;13.40;4.60;;;12.50;1.00;;;;;;5034442;28;20171;-74
2022/05/29 06:36:23;;;;;;;7.33;4.17;;;12.40;1.00;;;;;;5032063;28;20167;-75
2022/05/29 06:38:51;;;;;;;12.70;4.43;;;12.30;1.00;;;;;;5031569;28;20198;-74
2022/05/29 06:41:20;;;;;;;8.23;3.47;;;12.10;1.00;;;;;;5032414;28;20479;-70
2022/05/29 06:43:46;;;;;;;13.27;5.07;;;12.10;1.00;;;;;;5032215;28;20517;-74
2022/05/29 06:46:12;;;;;;;13.93;4.47;;;12.20;1.00;;;;;;5033375;28;20385;-70
2022/05/29 06:48:40;;;;;;;6.37;3.20;;;12.10;1.00;;;;;;5032580;28;20423;-74
2022/05/29 06:51:13;;;;;;;16.73;4.13;;;12.20;1.00;;;;;;5032431;28;20778;-74
2022/05/29 06:53:40;;;;;;;6.50;3.07;;;12.40;1.00;;;;;;5032983;28;20399;-73
2022/05/29 06:56:07;;;;;;;11.00;3.50;;;12.60;1.00;;;;;;5033399;28;20880;-73
2022/05/29 06:58:33;;;;;;;13.53;3.37;;;12.80;1.00;;;;;;5032326;28;20483;-74
2022/05/29 07:09:25;;;;;;;8.83;3.50;;;13.50;1.00;;;;;;5033068;28;20453;-74
2022/05/29 07:12:00;;;;;;;12.43;3.67;;;13.50;1.00;;;;;;5033244;28;21042;-69
2022/05/29 07:14:26;;;;;;;6.37;3.40;;;13.40;99.90;;;;;;5032793;28;20398;-69
2022/05/29 07:16:52;;;;;;;8.90;3.70;;;13.40;99.90;;;;;;5032372;28;20429;-74
2022/05/29 07:19:20;;;;;;;7.13;4.20;;;13.20;99.90;;;;;;5048580;28;20438;-70
2022/05/29 07:21:46;;;;;;;6.47;4.93;;;13.00;99.90;;;;;;5034678;28;20172;-68
2022/05/29 07:24:12;;;;;;;14.70;4.07;;;12.90;99.90;;;;;;5051265;28;20766;-74
2022/05/29 07:26:38;;;;;;;10.90;3.27;;;12.80;99.90;;;;;;5035325;28;20445;-74
2022/05/29 07:29:04;;;;;;;7.53;2.90;;;12.80;99.90;;;;;;5036683;28;20199;-70
2022/05/29 07:31:30;;;;;;;7.90;3.60;;;13.00;99.90;;;;;;5035710;28;20377;-69
2022/05/29 07:33:56;;;;;;;19.00;4.20;;;13.10;99.90;;;;;;5036843;28;20425;-73
2022/05/29 07:36:26;;;;;;;7.70;3.30;;;13.20;99.90;;;;;;5036465;28;20891;-69
2022/05/29 07:38:52;;;;;;;11.20;3.03;;;13.20;99.90;;;;;;5035274;28;20698;-72
2022/05/29 07:44:02;;;;;;;9.50;3.83;;;13.40;99.90;;;;;;5036661;28;20372;-69
2022/05/29 07:46:28;;;;;;;9.97;5.77;;;13.60;99.90;;;;;;5034720;28;20426;-75
2022/05/29 07:48:53;;;;;;;4.57;2.30;;;13.70;99.90;;;;;;5035833;28;20668;-74
2022/05/29 07:51:19;;;;;;;7.60;3.20;;;13.70;99.90;;;;;;5036814;28;20163;-74
2022/05/29 07:53:45;;;;;;;7.80;2.97;;;13.90;99.90;;;;;;5036649;28;20635;-69
2022/05/29 07:56:12;;;;;;;11.80;3.43;;;14.10;99.90;;;;;;5035241;28;20626;-69
2022/05/29 07:58:39;;;;;;;4.10;2.50;;;14.20;99.90;;;;;;5035661;28;20397;-73
2022/05/29 08:01:05;;;;;;;9.00;3.03;;;14.20;99.90;;;;;;5036549;28;20444;-69
2022/05/29 08:03:30;;;;;;;6.13;3.20;;;14.20;99.90;;;;;;5036396;28;20834;-68
2022/05/29 08:05:56;;;;;;;8.17;3.03;;;14.20;99.90;;;;;;5036374;28;20628;-73
2022/05/29 08:08:23;;;;;;;6.40;3.17;;;14.20;99.90;;;;;;5034797;28;20234;-69
2022/05/29 08:10:49;;;;;;;8.30;2.80;;;14.40;99.90;;;;;;5036246;28;20373;-74
2022/05/29 08:13:15;;;;;;;8.23;3.97;;;14.50;99.90;;;;;;5035283;28;20462;-73
2022/05/29 08:15:42;;;;;;;4.73;3.10;;;14.90;99.90;;;;;;5036428;28;20456;-69
2022/05/29 08:18:09;;;;;;;4.90;2.87;;;15.10;99.90;;;;;;5035198;28;20414;-69
2022/05/29 08:20:36;;;;;;;11.30;3.27;;;15.10;99.90;;;;;;5036008;28;20390;-73
2022/05/29 08:23:03;;;;;;;5.97;2.97;;;15.20;99.90;;;;;;5034819;28;20433;-68
2022/05/29 08:30:57;;;;;;;12.97;2.80;;;14.70;99.90;;;;;;5036079;28;20472;-73
2022/05/29 08:33:27;;;;;;;7.90;2.80;;;14.80;99.90;;;;;;5034558;28;20822;-67
2022/05/29 08:36:14;;;;;;;8.10;3.43;;;14.90;99.90;;;;;;5035748;28;20445;-68
2022/05/29 08:38:44;;;;;;;16.33;4.37;;;14.80;99.90;;;;;;5049981;28;20923;-69
2022/05/29 08:41:22;;;;;;;12.60;3.57;;;14.80;99.90;;;;;;5050914;28;20472;-68
2022/05/29 08:44:06;;;;;;;11.10;4.40;;;14.90;99.90;;;;;;5034220;28;20401;-69
2022/05/29 08:46:36;;;;;;;21.10;4.10;;;15.00;99.90;;;;;;5034623;28;20403;-73
2022/05/29 08:49:03;;;;;;;8.07;2.67;;;15.10;99.90;;;;;;5035239;28;20522;-68
2022/05/29 08:51:32;;;;;;;6.13;2.67;;;15.30;99.90;;;;;;5035823;28;20401;-73
2022/05/29 08:54:06;;;;;;;8.93;2.50;;;15.40;99.90;;;;;;5035615;28;20783;-73
2022/05/29 08:56:50;;;;;;;6.50;3.37;;;15.50;99.90;;;;;;5050113;28;20475;-69
2022/05/29 08:59:26;;;;;;;2.80;2.17;;;15.80;99.90;;;;;;5035326;28;21273;-68
2022/05/29 09:02:16;;;;;;;9.27;3.30;;;16.10;99.90;;;;;;5034299;28;20881;-68
2022/05/29 09:04:59;;;;;;;9.13;3.33;;;16.00;99.90;;;;;;5034905;28;20771;-69
2022/05/29 09:07:29;;;;;;;10.63;3.60;;;15.80;99.90;;;;;;5034327;28;20406;-69
2022/05/29 09:10:00;;;;;;;15.10;3.53;;;15.70;99.90;;;;;;5035047;28;20500;-68
2022/05/29 09:12:40;;;;;;;4.67;2.63;;;15.50;99.90;;;;;;5034127;28;20426;-68
2022/05/29 09:15:18;;;;;;;8.20;3.00;;;15.50;99.90;;;;;;5033928;28;20411;-69
2022/05/29 09:17:51;;;;;;;7.00;2.60;;;15.50;99.90;;;;;;5030937;28;21000;-69
2022/05/29 09:20:43;;;;;;;8.37;3.27;;;15.80;99.90;;;;;;5033652;28;20418;-73
2022/05/29 09:23:22;;;;;;;6.20;2.60;;;16.10;99.90;;;;;;5034455;28;20468;-71
2022/05/29 09:25:48;;;;;;;6.90;2.63;;;16.40;99.90;;;;;;5033662;28;20444;-70
2022/05/29 09:28:38;;;;;;;6.23;2.50;;;16.40;99.90;;;;;;5033844;28;20422;-68
2022/05/29 09:31:17;;;;;;;5.47;2.70;;;16.10;99.90;;;;;;5034568;28;20442;-69
2022/05/29 09:33:43;;;;;;;5.77;2.50;;;16.30;99.90;;;;;;5032721;28;20438;-68
2022/05/29 09:36:18;;;;;;;10.80;2.80;;;16.40;99.90;;;;;;5034710;28;20399;-73
2022/05/29 09:39:08;;;;;;;7.70;2.30;;;16.50;99.90;;;;;;5033817;28;20417;-68
2022/05/29 09:41:41;;;;;;;9.30;2.83;;;16.60;99.90;;;;;;5034159;28;20395;-68
2022/05/29 09:44:14;;;;;;;6.73;2.50;;;16.90;99.90;;;;;;5033913;28;20398;-73
2022/05/29 09:46:42;;;;;;;6.83;3.03;;;17.20;99.90;;;;;;5033603;28;20433;-68
2022/05/29 09:49:42;;;;;;;16.77;4.33;;;17.50;99.90;;;;;;5033010;28;20854;-69
2022/05/29 09:52:11;;;;;;;6.83;3.33;;;17.70;99.90;;;;;;5033073;28;20414;-73
2022/05/29 09:54:43;;;;;;;6.23;2.20;;;17.90;99.90;;;;;;5034417;28;20410;-73
2022/05/29 09:57:21;;;;;;;12.07;2.37;;;18.60;99.90;;;;;;5033346;28;20410;-73
2022/05/29 09:59:51;;;;;;;7.80;2.43;;;19.50;99.90;;;;;;5033706;28;20430;-73
2022/05/29 10:02:31;;;;;;;8.50;3.53;;;20.30;99.90;;;;;;5034287;28;20402;-73
2022/05/29 10:05:18;;;;;;;8.33;2.30;;;21.00;99.90;;;;;;5032551;28;20426;-68
2022/05/29 10:07:47;;;;;;;11.00;3.00;;;21.50;99.90;;;;;;5011843;28;20563;-68
2022/05/29 10:10:28;;;;;;;3.47;1.90;;;21.50;99.90;;;;;;5032739;28;20536;-68
2022/05/29 10:12:57;;;;;;;8.03;2.53;;;21.50;99.90;;;;;;5032696;28;20406;-74
2022/05/29 10:15:25;;;;;;;5.60;2.10;;;21.80;99.90;;;;;;5032482;28;20438;-74
2022/05/29 10:17:59;;;;;;;9.03;4.87;;;21.50;96.30;;;;;;5031654;28;20450;-68
2022/05/29 10:20:43;;;;;;;7.77;2.47;;;21.10;96.70;;;;;;5033942;28;20965;-69
2022/05/29 10:23:28;;;;;;;4.03;2.47;;;21.30;96.20;;;;;;5033915;28;20485;-74
2022/05/29 10:25:58;;;;;;;9.03;2.77;;;21.50;96.30;;;;;;5033660;28;20480;-68
2022/05/29 10:28:31;;;;;;;9.03;1.83;;;21.60;92.60;;;;;;5032738;28;20513;-68
2022/05/29 10:31:30;;;;;;;22.70;17.70;;;21.70;87.20;;;;;;5033597;28;20887;-69
2022/05/29 10:34:09;;;;;;;17.50;12.93;;;21.10;76.10;;;;;;5030715;28;20433;-69
2022/05/29 10:36:37;;;;;;;30.90;24.50;;;20.50;71.10;;;;;;5032399;28;20399;-69
2022/05/29 10:39:12;;;;;;;47.83;35.30;;;19.90;68.20;;;;;;5033471;28;20779;-73
2022/05/29 10:41:41;;;;;;;16.93;11.37;;;19.50;66.70;;;;;;5033347;28;20902;-69
2022/05/29 10:44:28;;;;;;;5.10;3.10;;;19.30;69.70;;;;;;5033464;28;20903;-68
2022/05/29 10:47:16;;;;;;;5.83;2.80;;;19.40;71.50;;;;;;5032765;28;20894;-68
2022/05/29 10:50:08;;;;;;;4.50;2.20;;;19.20;63.40;;;;;;5032048;28;20462;-69
2022/05/29 10:52:56;;;;;;;9.43;8.63;;;19.10;69.70;;;;;;5033212;28;20399;-68
2022/05/29 10:55:40;;;;;;;6.37;2.17;;;18.80;71.90;;;;;;5033260;28;20488;-73
2022/05/29 10:58:25;;;;;;;6.40;3.37;;;18.50;75.20;;;;;;5032084;28;20429;-73
2022/05/29 11:01:00;;;;;;;11.87;8.90;;;18.30;78.00;;;;;;5033349;28;20402;-73
2022/05/29 11:03:41;;;;;;;5.17;2.77;;;18.10;83.30;;;;;;5033498;28;20400;-73
2022/05/29 11:06:33;;;;;;;5.00;2.40;;;18.30;92.60;;;;;;5047572;28;20453;-68
2022/05/29 11:09:10;;;;;;;4.50;2.50;;;18.70;95.20;;;;;;5033283;28;20541;-68
2022/05/29 11:12:19;;;;;;;3.93;2.40;;;19.80;91.40;;;;;;5033284;28;20398;-73
2022/05/29 11:18:53;;;;;;;9.00;2.90;;;20.00;76.30;;;;;;4992089;28;21007;-68
2022/05/29 11:21:39;;;;;;;3.20;1.90;;;19.30;59.60;;;;;;5016624;28;20887;-73
2022/05/29 11:24:38;;;;;;;13.10;3.80;;;18.80;60.30;;;;;;5031181;28;20442;-68
2022/05/29 11:27:38;;;;;;;14.83;6.07;;;19.70;64.30;;;;;;5032210;28;20406;-68
2022/05/29 11:30:04;;;;;;;45.63;27.67;;;21.20;64.30;;;;;;5032842;28;20454;-73
2022/05/29 11:33:04;;;;;;;5.70;3.93;;;22.40;63.70;;;;;;5032784;28;20414;-72
2022/05/29 11:36:02;;;;;;;6.40;4.10;;;22.90;67.20;;;;;;5032930;28;20175;-71
2022/05/29 11:38:39;;;;;;;9.87;5.53;;;22.10;45.00;;;;;;5030865;28;20449;-74
2022/05/29 11:41:11;;;;;;;9.50;4.50;;;21.20;41.40;;;;;;5032895;28;20528;-68
2022/05/29 11:44:02;;;;;;;3.03;1.87;;;20.70;41.80;;;;;;5031536;28;20763;-74
2022/05/29 11:52:23;;;;;;;6.50;2.67;;;20.60;34.90;;;;;;5032203;28;20390;-69
2022/05/29 11:55:19;;;;;;;6.40;2.57;;;20.00;36.40;;;;;;5031818;28;20440;-73
2022/05/29 11:57:53;;;;;;;6.70;4.00;;;19.60;39.30;;;;;;5031801;28;20414;-68
2022/05/29 12:00:27;;;;;;;3.80;3.30;;;19.40;38.50;;;;;;5031764;28;20414;-69
2022/05/29 12:03:15;;;;;;;6.37;2.13;;;19.20;39.60;;;;;;5032797;28;20409;-68
2022/05/29 12:05:48;;;;;;;3.77;2.20;;;19.00;37.90;;;;;;5031852;28;20779;-73
2022/05/29 12:08:36;;;;;;;4.73;2.30;;;18.80;34.20;;;;;;5032746;28;20442;-72
2022/05/29 12:11:26;;;;;;;7.23;2.70;;;18.60;47.30;;;;;;5035786;28;20425;-68
2022/05/29 12:14:16;;;;;;;3.40;2.17;;;18.50;51.40;;;;;;5036126;28;20910;-73
2022/05/29 12:16:45;;;;;;;3.70;1.90;;;18.30;42.80;;;;;;5034048;28;20410;-73
2022/05/29 12:19:17;;;;;;;6.43;3.80;;;18.20;50.70;;;;;;5035181;28;20952;-73
2022/05/29 12:22:07;;;;;;;3.77;2.17;;;18.00;46.00;;;;;;5036148;28;20481;-72
2022/05/29 12:24:37;;;;;;;10.57;2.00;;;17.80;59.20;;;;;;5048249;28;20456;-72
2022/05/29 12:27:11;;;;;;;4.00;2.77;;;17.70;62.60;;;;;;5034068;28;20433;-68
2022/05/29 12:30:00;;;;;;;7.53;2.20;;;17.70;70.50;;;;;;5035841;28;20449;-73
2022/05/29 12:32:30;;;;;;;3.63;2.33;;;17.70;69.40;;;;;;5035266;28;20894;-68
2022/05/29 12:35:13;;;;;;;5.30;2.13;;;17.60;78.30;;;;;;5034825;28;20436;-67
2022/05/29 12:37:45;;;;;;;5.00;2.40;;;17.30;92.80;;;;;;5050115;28;20414;-67
2022/05/29 12:40:24;;;;;;;4.00;2.60;;;16.70;94.50;;;;;;5049989;28;20489;-69
2022/05/29 12:43:04;;;;;;;3.90;2.50;;;16.40;96.30;;;;;;5035534;28;20414;-73
2022/05/29 12:46:03;;;;;;;3.90;3.47;;;16.30;99.90;;;;;;5035562;28;20410;-73
2022/05/29 12:48:53;;;;;;;11.70;3.17;;;16.40;99.90;;;;;;5034143;28;20418;-69
2022/05/29 12:51:56;;;;;;;7.80;3.00;;;16.50;99.90;;;;;;5035627;28;20415;-73
2022/05/29 12:54:34;;;;;;;3.23;2.77;;;16.30;99.90;;;;;;5035354;28;20489;-70
2022/05/29 12:57:33;;;;;;;8.83;2.90;;;16.10;99.90;;;;;;5033382;28;20430;-72
2022/05/29 13:00:06;;;;;;;5.20;2.80;;;16.10;99.90;;;;;;5035522;28;20486;-72
2022/05/29 13:03:09;;;;;;;3.80;3.17;;;16.20;99.90;;;;;;5035374;28;20409;-70
2022/05/29 13:06:04;;;;;;;8.17;3.23;;;16.30;99.90;;;;;;5035376;28;20394;-72
2022/05/29 13:08:52;;;;;;;3.37;2.90;;;16.20;99.90;;;;;;5034047;28;20397;-70
2022/05/29 13:11:25;;;;;;;3.80;2.50;;;16.20;99.90;;;;;;5034200;28;20487;-72
2022/05/29 13:13:56;;;;;;;4.17;2.73;;;16.10;99.90;;;;;;5035200;28;20387;-70
2022/05/29 13:16:43;;;;;;;5.73;1.97;;;16.00;99.90;;;;;;5033653;28;20410;-74
2022/05/29 13:19:14;;;;;;;6.67;2.80;;;15.90;99.90;;;;;;5014381;28;20445;-73
2022/05/29 13:22:00;;;;;;;3.47;2.30;;;15.90;99.90;;;;;;5015224;28;20399;-74
2022/05/29 13:24:47;;;;;;;5.03;2.47;;;15.90;99.90;;;;;;5015022;28;20399;-75
2022/05/29 13:27:12;;;;;;;8.03;2.40;;;15.90;99.90;;;;;;5013147;28;20768;-75
2022/05/29 13:29:59;;;;;;;2.30;2.10;;;15.90;99.90;;;;;;5014802;28;20462;-74
2022/05/29 13:32:28;;;;;;;4.37;2.33;;;15.80;99.90;;;;;;5032166;28;20184;-72
2022/05/29 13:35:03;;;;;;;3.53;2.20;;;15.70;99.90;;;;;;5034605;28;20888;-73
2022/05/29 13:37:47;;;;;;;2.23;1.80;;;15.70;99.90;;;;;;5032443;28;20991;-71
2022/05/29 13:40:33;;;;;;;3.87;2.70;;;15.60;99.90;;;;;;5034661;28;20467;-73
2022/05/29 13:43:19;;;;;;;5.63;3.40;;;15.70;99.90;;;;;;5034368;28;20390;-74
2022/05/29 13:45:45;;;;;;;3.60;3.30;;;15.80;99.90;;;;;;5034586;28;20406;-73
2022/05/29 13:48:30;;;;;;;3.80;3.50;;;15.90;99.90;;;;;;5048880;28;20438;-74
2022/05/29 13:51:26;;;;;;;3.10;2.80;;;16.00;99.90;;;;;;5033248;28;20426;-73
2022/05/29 13:54:05;;;;;;;4.30;3.30;;;16.20;99.90;;;;;;5033257;28;20406;-74
2022/05/29 13:56:58;;;;;;;3.37;2.77;;;16.40;99.90;;;;;;5033534;28;20404;-74
2022/05/29 14:05:42;;;;;;;6.73;2.80;;;16.90;99.90;;;;;;5033156;28;20933;-73